createdAt,value
2022-10-17T00:04:45.597Z,6.95
2022-10-17T00:09:49.733Z,7.09
2022-10-17T00:14:55.168Z,7.20
2022-10-17T00:20:00.373Z,7.18
2022-10-17T00:25:04.831Z,6.96
2022-10-17T00:30:14.344Z,6.73
2022-10-17T00:35:18.660Z,6.64
2022-10-17T00:40:22.711Z,6.67
2022-10-17T00:45:30.229Z,6.79
2022-10-17T00:50:36.236Z,6.67
2022-10-17T00:55:48.741Z,6.69
2022-10-17T01:00:54.134Z,6.74
2022-10-17T01:05:58.918Z,6.50
2022-10-17T01:11:13.653Z,6.60
2022-10-17T01:16:29.466Z,6.75
2022-10-17T01:21:47.718Z,6.01
2022-10-17T01:27:27.405Z,5.95
2022-10-17T01:32:40.947Z,6.32
2022-10-17T01:37:49.641Z,6.26
2022-10-17T01:42:59.289Z,5.90
2022-10-17T01:48:10.185Z,5.79
2022-10-17T01:53:20.797Z,6.24
2022-10-17T01:58:30.137Z,6.32
2022-10-17T02:03:36.995Z,6.33
2022-10-17T02:08:45.585Z,5.99
2022-10-17T02:14:06.949Z,5.92
2022-10-17T02:19:48.411Z,5.78
2022-10-17T02:25:00.869Z,5.92
2022-10-17T02:30:10.326Z,6.06
2022-10-17T02:35:17.386Z,5.63
2022-10-17T02:40:25.727Z,5.88
2022-10-17T02:45:35.916Z,6.12
2022-10-17T02:50:53.519Z,6.23
2022-10-17T02:56:01.528Z,6.11
2022-10-17T03:01:09.755Z,5.92
2022-10-17T03:06:15.700Z,6.04
2022-10-17T03:11:19.768Z,5.93
2022-10-17T03:16:23.768Z,5.97
2022-10-17T03:21:30.683Z,5.98
2022-10-17T03:26:35.239Z,5.80
2022-10-17T03:31:39.957Z,5.84
2022-10-17T03:36:47.103Z,5.59
2022-10-17T03:41:51.599Z,5.52
2022-10-17T03:46:56.097Z,5.44
2022-10-17T03:52:01.706Z,5.62
2022-10-17T03:57:05.998Z,5.51
2022-10-17T04:02:11.811Z,5.63
2022-10-17T04:07:17.382Z,5.66
2022-10-17T04:12:23.476Z,5.66
2022-10-17T04:17:27.687Z,5.73
2022-10-17T04:22:33.686Z,5.76
2022-10-17T04:27:38.620Z,5.51
2022-10-17T04:32:43.388Z,5.49
2022-10-17T04:37:57.131Z,5.85
2022-10-17T04:43:02.273Z,5.19
2022-10-17T04:48:13.728Z,4.97
2022-10-17T04:53:19.664Z,5.14
2022-10-17T04:58:24.444Z,5.21
2022-10-17T05:03:28.912Z,5.42
2022-10-17T05:08:35.149Z,5.17
2022-10-17T05:13:39.739Z,5.33
2022-10-17T05:18:49.460Z,5.48
2022-10-17T05:23:58.525Z,5.78
2022-10-17T05:29:04.498Z,6.25
2022-10-17T05:34:13.929Z,6.22
2022-10-17T05:39:21.811Z,6.49
2022-10-17T05:44:28.136Z,6.26
2022-10-17T05:49:52.647Z,6.60
2022-10-17T05:55:05.285Z,7.21
2022-10-17T06:00:10.890Z,7.89
2022-10-17T06:05:27.965Z,8.38
2022-10-17T06:10:34.917Z,7.77
2022-10-17T06:15:40.856Z,7.49
2022-10-17T06:20:48.911Z,8.03
2022-10-17T06:26:00.857Z,8.18
2022-10-17T06:31:08.151Z,10.10
2022-10-17T06:36:15.543Z,11.58
2022-10-17T06:41:23.258Z,12.03
2022-10-17T06:46:30.116Z,13.28
2022-10-17T06:51:43.186Z,14.14
2022-10-17T06:56:51.529Z,15.40
2022-10-17T07:02:05.440Z,16.18
2022-10-17T07:07:10.170Z,16.54
2022-10-17T07:12:16.491Z,16.90
2022-10-17T07:17:22.639Z,17.40
2022-10-17T07:22:27.539Z,18.07
2022-10-17T07:27:36.265Z,17.72
2022-10-17T07:32:41.694Z,18.61
2022-10-17T07:37:48.676Z,19.43
2022-10-17T07:42:59.996Z,18.76
2022-10-17T07:48:04.738Z,19.33
2022-10-17T07:53:09.222Z,20.49
2022-10-17T07:58:15.490Z,20.41
2022-10-17T08:03:19.529Z,20.37
2022-10-17T08:08:23.852Z,20.89
2022-10-17T08:13:29.350Z,20.94
2022-10-17T08:18:33.363Z,21.37
2022-10-17T08:23:38.355Z,21.36
2022-10-17T08:28:44.285Z,21.52
2022-10-17T08:33:50.617Z,21.13
2022-10-17T08:38:55.137Z,21.22
2022-10-17T08:44:14.200Z,21.05
2022-10-17T08:49:25.203Z,21.09
2022-10-17T08:54:38.051Z,20.30
2022-10-17T08:59:46.872Z,20.59
2022-10-17T09:05:07.136Z,21.41
2022-10-17T09:10:17.423Z,21.31
2022-10-17T09:15:38.992Z,21.31
2022-10-17T09:20:48.690Z,22.42
2022-10-17T09:25:55.920Z,21.93
2022-10-17T09:31:04.395Z,22.48
2022-10-17T09:36:16.119Z,22.78
2022-10-17T09:41:44.112Z,23.17
2022-10-17T09:47:24.052Z,24.17
2022-10-17T09:52:33.050Z,24.90
2022-10-17T09:57:56.640Z,25.00
2022-10-17T10:03:15.862Z,25.08
2022-10-17T10:08:21.377Z,25.42
2022-10-17T10:13:27.885Z,24.62
2022-10-17T10:18:36.263Z,25.08
2022-10-17T10:23:41.692Z,24.16
2022-10-17T10:28:54.318Z,23.96
2022-10-17T10:34:05.171Z,24.40
2022-10-17T10:39:19.464Z,24.21
2022-10-17T10:44:27.422Z,24.06
2022-10-17T10:49:36.530Z,23.70
2022-10-17T10:54:48.098Z,23.32
2022-10-17T10:59:59.784Z,23.94
2022-10-17T11:05:15.221Z,23.61
2022-10-17T11:10:26.472Z,24.29
2022-10-17T11:15:37.951Z,24.40
2022-10-17T11:20:54.017Z,24.98
2022-10-17T11:26:05.889Z,25.16
2022-10-17T11:31:14.938Z,25.26
2022-10-17T11:36:26.459Z,24.66
2022-10-17T11:41:35.319Z,25.27
2022-10-17T11:46:42.983Z,24.81
2022-10-17T11:52:02.120Z,24.28
2022-10-17T11:57:24.463Z,24.38
2022-10-17T12:02:46.581Z,24.14
2022-10-17T12:08:01.792Z,24.57
2022-10-17T12:13:43.126Z,24.14
2022-10-17T12:18:48.531Z,24.15
2022-10-17T12:23:56.544Z,24.11
2022-10-17T12:29:00.777Z,23.90
2022-10-17T12:34:06.607Z,24.05
2022-10-17T12:39:50.737Z,24.51
2022-10-17T12:44:56.436Z,23.75
2022-10-17T12:50:03.123Z,24.04
2022-10-17T12:55:15.087Z,24.30
2022-10-17T13:00:25.334Z,24.44
2022-10-17T13:05:32.335Z,23.99
2022-10-17T13:10:43.062Z,23.95
2022-10-17T13:15:50.265Z,23.65
2022-10-17T13:21:01.422Z,23.98
2022-10-17T13:26:15.139Z,23.72
2022-10-17T13:31:32.024Z,23.47
2022-10-17T13:36:36.963Z,22.97
2022-10-17T13:41:42.600Z,23.18
2022-10-17T13:46:48.630Z,23.20
2022-10-17T13:51:57.165Z,23.39
2022-10-17T13:57:02.127Z,23.59
2022-10-17T14:02:13.709Z,22.91
2022-10-17T14:07:34.123Z,22.67
2022-10-17T14:12:49.242Z,22.49
2022-10-17T14:18:04.216Z,22.21
2022-10-17T14:23:31.682Z,22.10
2022-10-17T14:28:36.014Z,22.19
2022-10-17T14:33:50.591Z,22.06
2022-10-17T14:38:55.426Z,22.12
2022-10-17T14:44:02.980Z,21.89
2022-10-17T14:49:23.213Z,21.12
2022-10-17T14:54:30.316Z,20.75
2022-10-17T14:59:53.401Z,21.19
2022-10-17T15:05:00.431Z,21.28
2022-10-17T15:10:05.491Z,20.80
2022-10-17T15:15:11.623Z,20.45
2022-10-17T15:20:20.527Z,19.55
2022-10-17T15:25:25.307Z,19.50
2022-10-17T15:30:32.292Z,18.23
2022-10-17T15:35:38.331Z,17.72
2022-10-17T15:40:44.232Z,17.61
2022-10-17T15:45:50.142Z,17.08
2022-10-17T15:50:55.668Z,16.80
2022-10-17T15:56:00.651Z,16.84
2022-10-17T16:01:08.011Z,16.27
2022-10-17T16:06:14.293Z,16.33
2022-10-17T16:11:26.176Z,15.64
2022-10-17T16:16:31.190Z,15.45
2022-10-17T16:21:42.593Z,14.74
2022-10-17T16:26:47.989Z,14.88
2022-10-17T16:31:52.532Z,14.65
2022-10-17T16:37:00.004Z,14.30
2022-10-17T16:42:04.669Z,14.08
2022-10-17T16:47:10.017Z,13.34
2022-10-17T16:52:18.156Z,12.84
2022-10-17T16:57:24.189Z,13.31
2022-10-17T17:02:29.065Z,13.02
2022-10-17T17:07:34.802Z,12.70
2022-10-17T17:12:39.422Z,12.42
2022-10-17T17:17:54.866Z,12.10
2022-10-17T17:23:00.847Z,12.05
2022-10-17T17:28:05.151Z,11.54
2022-10-17T17:33:09.540Z,11.49
2022-10-17T17:38:14.964Z,11.47
2022-10-17T17:43:22.111Z,11.72
2022-10-17T17:48:27.939Z,11.74
2022-10-17T17:53:34.052Z,11.31
2022-10-17T17:58:39.171Z,11.22
2022-10-17T18:03:44.711Z,11.40
2022-10-17T18:08:52.926Z,11.47
2022-10-17T18:14:00.385Z,11.12
2022-10-17T18:19:09.227Z,11.03
2022-10-17T18:24:15.331Z,10.94
2022-10-17T18:29:19.939Z,10.98
2022-10-17T18:34:27.526Z,10.78
2022-10-17T18:39:33.498Z,10.57
2022-10-17T18:44:37.464Z,10.42
2022-10-17T18:49:44.133Z,10.37
2022-10-17T18:54:49.863Z,10.27
2022-10-17T18:59:57.305Z,10.00
2022-10-17T19:05:02.099Z,10.02
2022-10-17T19:10:08.504Z,10.02
2022-10-17T19:15:13.164Z,10.08
2022-10-17T19:20:18.922Z,10.00
2022-10-17T19:25:26.004Z,9.73
2022-10-17T19:30:30.421Z,9.43
2022-10-17T19:35:37.059Z,9.46
2022-10-17T19:40:43.629Z,9.30
2022-10-17T19:45:57.139Z,9.14
2022-10-17T19:51:01.835Z,9.01
2022-10-17T19:56:09.861Z,9.08
2022-10-17T20:01:15.336Z,9.19
2022-10-17T20:06:21.456Z,8.73
2022-10-17T20:11:28.659Z,8.73
2022-10-17T20:16:35.437Z,8.82
2022-10-17T20:21:40.583Z,8.76
2022-10-17T20:26:47.706Z,8.70
2022-10-17T20:31:52.060Z,8.50
2022-10-17T20:36:56.992Z,8.63
2022-10-17T20:42:04.424Z,8.62
2022-10-17T20:47:12.148Z,8.76
2022-10-17T20:52:20.952Z,8.76
2022-10-17T20:57:26.571Z,8.72
2022-10-17T21:02:31.497Z,8.60
2022-10-17T21:07:35.793Z,8.32
2022-10-17T21:12:53.236Z,8.27
2022-10-17T21:17:58.138Z,8.39
2022-10-17T21:23:02.178Z,8.43
2022-10-17T21:28:08.260Z,8.26
2022-10-17T21:33:12.774Z,8.16
2022-10-17T21:38:16.940Z,8.08
2022-10-17T21:43:22.644Z,8.11
2022-10-17T21:48:27.581Z,8.13
2022-10-17T21:53:31.689Z,7.64
2022-10-17T21:58:37.481Z,7.22
2022-10-17T22:03:46.899Z,7.14
2022-10-17T22:08:52.178Z,7.06
2022-10-17T22:14:01.120Z,7.28
2022-10-17T22:19:08.074Z,7.08
2022-10-17T22:24:14.248Z,7.20
2022-10-17T22:29:20.291Z,7.20
2022-10-17T22:34:24.558Z,7.49
2022-10-17T22:39:29.275Z,7.47
2022-10-17T22:44:34.892Z,7.62
2022-10-17T22:49:39.093Z,7.28
2022-10-17T22:54:43.209Z,7.37
2022-10-17T22:59:48.853Z,6.97
2022-10-17T23:04:52.941Z,6.85
2022-10-17T23:09:59.853Z,6.88
2022-10-17T23:15:06.248Z,6.84
2022-10-17T23:20:10.910Z,6.83
2022-10-17T23:25:14.906Z,6.70
2022-10-17T23:30:20.768Z,7.02
2022-10-17T23:35:27.290Z,7.01
2022-10-17T23:40:31.431Z,6.71
2022-10-17T23:45:37.233Z,7.11
2022-10-17T23:50:42.004Z,6.90
2022-10-17T23:55:46.712Z,6.90
